sensor_id;sensor_type;location;lat;lon;timestamp;pressure;altitude;pressure_sealevel;temperature;humidity
64908;BME280;64365;-1.756;110.040;2023-03-14T00:02:13;98768.94;;;11.93;71.58
64908;BME280;64365;-1.756;110.040;2023-03-14T00:04:40;98774.19;;;11.97;71.27
64908;BME280;64365;-1.756;110.040;2023-03-14T00:07:06;98771.94;;;11.95;71.51
64908;BME280;64365;-1.756;110.040;2023-03-14T00:09:33;98768.53;;;11.95;71.59
64908;BME280;64365;-1.756;110.040;2023-03-14T00:11:59;98768.03;;;12.00;71.19
64908;BME280;64365;-1.756;110.040;2023-03-14T00:14:30;98768.84;;;11.97;71.40
64908;BME280;64365;-1.756;110.040;2023-03-14T00:16:57;98769.63;;;11.98;71.47
64908;BME280;64365;-1.756;110.040;2023-03-14T00:19:24;98773.34;;;12.00;71.41
64908;BME280;64365;-1.756;110.040;2023-03-14T00:21:50;98768.13;;;11.96;71.58
64908;BME280;64365;-1.756;110.040;2023-03-14T00:24:17;98770.78;;;11.96;71.98
64908;BME280;64365;-1.756;110.040;2023-03-14T00:26:43;98769.63;;;11.98;71.73
64908;BME280;64365;-1.756;110.040;2023-03-14T00:29:10;98763.75;;;12.03;71.64
64908;BME280;64365;-1.756;110.040;2023-03-14T00:31:38;98762.06;;;12.09;71.21
64908;BME280;64365;-1.756;110.040;2023-03-14T00:34:04;98753.88;;;12.03;71.10
64908;BME280;64365;-1.756;110.040;2023-03-14T00:36:31;98765.59;;;12.06;71.82
64908;BME280;64365;-1.756;110.040;2023-03-14T00:38:57;98748.75;;;12.09;71.26
64908;BME280;64365;-1.756;110.040;2023-03-14T00:41:24;98757.25;;;12.04;71.53
64908;BME280;64365;-1.756;110.040;2023-03-14T00:43:51;98755.75;;;12.03;71.70
64908;BME280;64365;-1.756;110.040;2023-03-14T00:46:18;98757.25;;;12.04;72.05
64908;BME280;64365;-1.756;110.040;2023-03-14T00:48:46;98765.25;;;12.04;72.02
64908;BME280;64365;-1.756;110.040;2023-03-14T00:51:13;98761.09;;;12.03;72.09
64908;BME280;64365;-1.756;110.040;2023-03-14T00:53:40;98776.84;;;11.97;72.15
64908;BME280;64365;-1.756;110.040;2023-03-14T00:56:09;98782.00;;;11.88;72.78
64908;BME280;64365;-1.756;110.040;2023-03-14T00:58:36;98775.28;;;11.83;72.92
64908;BME280;64365;-1.756;110.040;2023-03-14T01:01:05;98773.69;;;11.86;72.87
64908;BME280;64365;-1.756;110.040;2023-03-14T01:03:36;98775.28;;;11.83;73.08
64908;BME280;64365;-1.756;110.040;2023-03-14T01:06:13;98785.28;;;11.79;73.79
64908;BME280;64365;-1.756;110.040;2023-03-14T01:08:40;98783.13;;;11.74;74.70
64908;BME280;64365;-1.756;110.040;2023-03-14T01:11:08;98775.66;;;11.69;75.27
64908;BME280;64365;-1.756;110.040;2023-03-14T01:13:36;98774.03;;;11.58;75.40
64908;BME280;64365;-1.756;110.040;2023-03-14T01:16:03;98765.13;;;11.49;76.50
64908;BME280;64365;-1.756;110.040;2023-03-14T01:18:32;98771.00;;;11.43;76.89
64908;BME280;64365;-1.756;110.040;2023-03-14T01:21:00;98771.25;;;11.33;77.80
64908;BME280;64365;-1.756;110.040;2023-03-14T01:23:28;98763.00;;;11.27;78.23
64908;BME280;64365;-1.756;110.040;2023-03-14T01:25:54;98761.03;;;11.15;78.42
64908;BME280;64365;-1.756;110.040;2023-03-14T01:28:21;98778.41;;;11.19;79.19
64908;BME280;64365;-1.756;110.040;2023-03-14T01:30:47;98772.31;;;11.19;79.94
64908;BME280;64365;-1.756;110.040;2023-03-14T01:33:14;98784.53;;;11.16;81.07
64908;BME280;64365;-1.756;110.040;2023-03-14T01:35:40;98782.13;;;11.05;81.85
64908;BME280;64365;-1.756;110.040;2023-03-14T01:38:07;98781.22;;;10.95;82.80
64908;BME280;64365;-1.756;110.040;2023-03-14T01:40:41;98783.72;;;10.86;84.28
64908;BME280;64365;-1.756;110.040;2023-03-14T01:43:14;98781.88;;;10.83;84.11
64908;BME280;64365;-1.756;110.040;2023-03-14T01:46:12;98772.16;;;10.76;85.16
64908;BME280;64365;-1.756;110.040;2023-03-14T01:48:47;98769.75;;;10.66;86.19
64908;BME280;64365;-1.756;110.040;2023-03-14T01:51:17;98758.53;;;10.58;86.68
64908;BME280;64365;-1.756;110.040;2023-03-14T01:53:46;98760.38;;;10.61;86.18
64908;BME280;64365;-1.756;110.040;2023-03-14T01:56:16;98766.91;;;10.56;86.67
64908;BME280;64365;-1.756;110.040;2023-03-14T01:58:46;98763.09;;;10.57;86.67
64908;BME280;64365;-1.756;110.040;2023-03-14T02:01:16;98762.59;;;10.63;86.18
64908;BME280;64365;-1.756;110.040;2023-03-14T02:03:48;98752.22;;;10.68;86.19
64908;BME280;64365;-1.756;110.040;2023-03-14T02:06:19;98752.41;;;10.61;86.55
64908;BME280;64365;-1.756;110.040;2023-03-14T02:08:47;98752.47;;;10.57;86.63
64908;BME280;64365;-1.756;110.040;2023-03-14T02:11:16;98729.88;;;10.49;86.86
64908;BME280;64365;-1.756;110.040;2023-03-14T02:13:44;98733.72;;;10.65;86.28
64908;BME280;64365;-1.756;110.040;2023-03-14T02:16:11;98742.34;;;10.69;85.69
64908;BME280;64365;-1.756;110.040;2023-03-14T02:18:37;98734.88;;;10.64;86.08
64908;BME280;64365;-1.756;110.040;2023-03-14T02:21:11;98747.81;;;10.61;86.07
64908;BME280;64365;-1.756;110.040;2023-03-14T02:23:45;98728.91;;;10.59;86.22
64908;BME280;64365;-1.756;110.040;2023-03-14T02:26:20;98726.16;;;10.63;86.21
64908;BME280;64365;-1.756;110.040;2023-03-14T02:28:50;98729.41;;;10.71;85.45
64908;BME280;64365;-1.756;110.040;2023-03-14T02:31:19;98725.31;;;10.66;85.25
64908;BME280;64365;-1.756;110.040;2023-03-14T02:33:47;98723.59;;;10.76;84.86
64908;BME280;64365;-1.756;110.040;2023-03-14T02:36:14;98724.75;;;10.75;85.21
64908;BME280;64365;-1.756;110.040;2023-03-14T02:38:46;98723.69;;;10.72;84.56
64908;BME280;64365;-1.756;110.040;2023-03-14T02:41:14;98725.66;;;10.68;85.53
64908;BME280;64365;-1.756;110.040;2023-03-14T02:43:40;98725.91;;;10.57;85.40
64908;BME280;64365;-1.756;110.040;2023-03-14T02:46:10;98714.13;;;10.58;85.67
64908;BME280;64365;-1.756;110.040;2023-03-14T02:48:40;98714.13;;;10.58;85.85
64908;BME280;64365;-1.756;110.040;2023-03-14T02:51:07;98721.75;;;10.56;85.87
64908;BME280;64365;-1.756;110.040;2023-03-14T02:53:35;98715.22;;;10.61;85.79
64908;BME280;64365;-1.756;110.040;2023-03-14T02:56:04;98707.00;;;10.55;85.76
64908;BME280;64365;-1.756;110.040;2023-03-14T02:58:31;98715.44;;;10.50;86.53
64908;BME280;64365;-1.756;110.040;2023-03-14T03:00:57;98710.88;;;10.51;86.58
64908;BME280;64365;-1.756;110.040;2023-03-14T03:03:26;98714.53;;;10.57;85.90
64908;BME280;64365;-1.756;110.040;2023-03-14T03:05:54;98715.69;;;10.56;86.22
64908;BME280;64365;-1.756;110.040;2023-03-14T03:08:23;98709.22;;;10.57;85.95
64908;BME280;64365;-1.756;110.040;2023-03-14T03:10:50;98703.16;;;10.56;85.61
64908;BME280;64365;-1.756;110.040;2023-03-14T03:13:17;98699.09;;;10.52;86.27
64908;BME280;64365;-1.756;110.040;2023-03-14T03:15:44;98699.94;;;10.49;86.19
64908;BME280;64365;-1.756;110.040;2023-03-14T03:18:11;98709.31;;;10.53;86.22
64908;BME280;64365;-1.756;110.040;2023-03-14T03:20:38;98708.16;;;10.54;86.25
64908;BME280;64365;-1.756;110.040;2023-03-14T03:23:05;98702.06;;;10.54;86.27
64908;BME280;64365;-1.756;110.040;2023-03-14T03:25:32;98696.44;;;10.52;86.38
64908;BME280;64365;-1.756;110.040;2023-03-14T03:27:59;98701.34;;;10.53;86.39
64908;BME280;64365;-1.756;110.040;2023-03-14T03:30:25;98691.06;;;10.55;85.91
64908;BME280;64365;-1.756;110.040;2023-03-14T03:32:52;98697.84;;;10.56;86.13
64908;BME280;64365;-1.756;110.040;2023-03-14T03:35:18;98695.69;;;10.51;86.69
64908;BME280;64365;-1.756;110.040;2023-03-14T03:37:46;98697.13;;;10.56;86.48
64908;BME280;64365;-1.756;110.040;2023-03-14T03:40:13;98690.22;;;10.58;86.40
64908;BME280;64365;-1.756;110.040;2023-03-14T03:42:39;98694.03;;;10.57;86.25
64908;BME280;64365;-1.756;110.040;2023-03-14T03:45:07;98695.78;;;10.64;85.95
64908;BME280;64365;-1.756;110.040;2023-03-14T03:47:33;98699.84;;;10.69;85.45
64908;BME280;64365;-1.756;110.040;2023-03-14T03:50:00;98690.06;;;10.66;85.54
64908;BME280;64365;-1.756;110.040;2023-03-14T03:52:27;98696.03;;;10.70;85.38
64908;BME280;64365;-1.756;110.040;2023-03-14T03:54:55;98689.72;;;10.64;85.42
64908;BME280;64365;-1.756;110.040;2023-03-14T03:57:22;98693.88;;;10.65;85.43
64908;BME280;64365;-1.756;110.040;2023-03-14T03:59:48;98696.88;;;10.67;84.80
64908;BME280;64365;-1.756;110.040;2023-03-14T04:02:14;98695.84;;;10.60;85.12
64908;BME280;64365;-1.756;110.040;2023-03-14T04:04:41;98687.06;;;10.64;85.55
64908;BME280;64365;-1.756;110.040;2023-03-14T04:07:08;98687.81;;;10.64;85.23
64908;BME280;64365;-1.756;110.040;2023-03-14T04:09:37;98688.47;;;10.68;85.32
64908;BME280;64365;-1.756;110.040;2023-03-14T04:12:05;98687.41;;;10.66;85.05
64908;BME280;64365;-1.756;110.040;2023-03-14T04:14:31;98688.41;;;10.72;84.60
64908;BME280;64365;-1.756;110.040;2023-03-14T04:16:58;98690.78;;;10.66;85.44
64908;BME280;64365;-1.756;110.040;2023-03-14T04:19:25;98686.16;;;10.70;84.69
64908;BME280;64365;-1.756;110.040;2023-03-14T04:21:51;98691.97;;;10.65;84.97
64908;BME280;64365;-1.756;110.040;2023-03-14T04:24:18;98687.81;;;10.64;85.13
64908;BME280;64365;-1.756;110.040;2023-03-14T04:26:44;98696.19;;;10.63;85.69
64908;BME280;64365;-1.756;110.040;2023-03-14T04:29:12;98696.09;;;10.66;85.57
64908;BME280;64365;-1.756;110.040;2023-03-14T04:31:38;98682.00;;;10.69;84.87
64908;BME280;64365;-1.756;110.040;2023-03-14T04:34:05;98679.78;;;10.68;84.81
64908;BME280;64365;-1.756;110.040;2023-03-14T04:36:32;98676.78;;;10.66;84.42
64908;BME280;64365;-1.756;110.040;2023-03-14T04:38:58;98684.56;;;10.73;84.59
64908;BME280;64365;-1.756;110.040;2023-03-14T04:41:25;98684.16;;;10.74;84.27
64908;BME280;64365;-1.756;110.040;2023-03-14T04:43:51;98676.28;;;10.71;84.76
64908;BME280;64365;-1.756;110.040;2023-03-14T04:46:19;98679.66;;;10.71;85.30
64908;BME280;64365;-1.756;110.040;2023-03-14T04:48:45;98675.94;;;10.69;85.13
64908;BME280;64365;-1.756;110.040;2023-03-14T04:51:12;98682.75;;;10.70;85.92
64908;BME280;64365;-1.756;110.040;2023-03-14T04:53:39;98674.47;;;10.68;86.41
64908;BME280;64365;-1.756;110.040;2023-03-14T04:56:07;98680.25;;;10.63;87.05
64908;BME280;64365;-1.756;110.040;2023-03-14T04:58:34;98682.00;;;10.53;88.27
64908;BME280;64365;-1.756;110.040;2023-03-14T05:01:04;98675.94;;;10.52;88.60
64908;BME280;64365;-1.756;110.040;2023-03-14T05:03:32;98685.88;;;10.48;89.76
64908;BME280;64365;-1.756;110.040;2023-03-14T05:06:01;98679.88;;;10.27;90.71
64908;BME280;64365;-1.756;110.040;2023-03-14T05:08:27;98688.38;;;10.39;90.80
64908;BME280;64365;-1.756;110.040;2023-03-14T05:10:55;98685.81;;;10.35;91.34
64908;BME280;64365;-1.756;110.040;2023-03-14T05:13:22;98695.19;;;10.40;90.96
64908;BME280;64365;-1.756;110.040;2023-03-14T05:15:49;98685.03;;;10.35;91.42
64908;BME280;64365;-1.756;110.040;2023-03-14T05:18:17;98685.50;;;10.29;91.89
64908;BME280;64365;-1.756;110.040;2023-03-14T05:20:45;98678.72;;;10.28;92.65
64908;BME280;64365;-1.756;110.040;2023-03-14T05:23:11;98679.81;;;10.31;93.11
64908;BME280;64365;-1.756;110.040;2023-03-14T05:25:38;98676.88;;;10.25;92.77
64908;BME280;64365;-1.756;110.040;2023-03-14T05:28:04;98656.88;;;10.21;93.97
64908;BME280;64365;-1.756;110.040;2023-03-14T05:30:31;98647.66;;;10.25;93.99
64908;BME280;64365;-1.756;110.040;2023-03-14T05:32:58;98649.16;;;10.26;93.66
64908;BME280;64365;-1.756;110.040;2023-03-14T05:35:25;98647.34;;;10.23;93.78
64908;BME280;64365;-1.756;110.040;2023-03-14T05:37:53;98657.38;;;10.16;94.58
64908;BME280;64365;-1.756;110.040;2023-03-14T05:40:19;98643.44;;;10.11;94.92
64908;BME280;64365;-1.756;110.040;2023-03-14T05:42:46;98657.13;;;10.10;96.07
64908;BME280;64365;-1.756;110.040;2023-03-14T05:45:12;98655.53;;;10.13;95.78
64908;BME280;64365;-1.756;110.040;2023-03-14T05:47:39;98663.75;;;10.18;95.45
64908;BME280;64365;-1.756;110.040;2023-03-14T05:50:06;98664.50;;;10.19;95.37
64908;BME280;64365;-1.756;110.040;2023-03-14T05:52:33;98654.72;;;10.16;95.44
64908;BME280;64365;-1.756;110.040;2023-03-14T05:55:01;98662.59;;;10.19;96.21
64908;BME280;64365;-1.756;110.040;2023-03-14T05:57:28;98685.59;;;10.26;95.58
64908;BME280;64365;-1.756;110.040;2023-03-14T05:59:54;98677.63;;;10.26;95.79
64908;BME280;64365;-1.756;110.040;2023-03-14T06:02:21;98665.34;;;10.16;95.71
64908;BME280;64365;-1.756;110.040;2023-03-14T06:04:47;98676.47;;;10.27;95.46
64908;BME280;64365;-1.756;110.040;2023-03-14T06:07:14;98685.25;;;10.24;95.50
64908;BME280;64365;-1.756;110.040;2023-03-14T06:09:40;98700.50;;;10.20;95.92
64908;BME280;64365;-1.756;110.040;2023-03-14T06:12:08;98699.41;;;10.17;95.71
64908;BME280;64365;-1.756;110.040;2023-03-14T06:14:35;98719.84;;;10.20;96.53
64908;BME280;64365;-1.756;110.040;2023-03-14T06:17:02;98742.91;;;10.23;97.05
64908;BME280;64365;-1.756;110.040;2023-03-14T06:19:28;98744.69;;;10.30;96.74
64908;BME280;64365;-1.756;110.040;2023-03-14T06:21:55;98754.88;;;10.32;96.04
64908;BME280;64365;-1.756;110.040;2023-03-14T06:24:21;98761.25;;;10.38;95.33
64908;BME280;64365;-1.756;110.040;2023-03-14T06:26:48;98770.38;;;10.37;94.02
64908;BME280;64365;-1.756;110.040;2023-03-14T06:29:16;98779.13;;;10.34;92.78
64908;BME280;64365;-1.756;110.040;2023-03-14T06:31:42;98786.28;;;10.37;92.36
64908;BME280;64365;-1.756;110.040;2023-03-14T06:34:09;98785.06;;;10.41;92.21
64908;BME280;64365;-1.756;110.040;2023-03-14T06:36:35;98799.09;;;10.42;91.74
64908;BME280;64365;-1.756;110.040;2023-03-14T06:39:02;98805.88;;;10.43;91.50
64908;BME280;64365;-1.756;110.040;2023-03-14T06:41:29;98808.06;;;10.48;91.20
64908;BME280;64365;-1.756;110.040;2023-03-14T06:43:55;98813.72;;;10.50;91.00
64908;BME280;64365;-1.756;110.040;2023-03-14T06:46:23;98819.44;;;10.49;89.94
64908;BME280;64365;-1.756;110.040;2023-03-14T06:48:50;98826.81;;;10.41;90.01
64908;BME280;64365;-1.756;110.040;2023-03-14T06:51:16;98838.94;;;10.42;90.35
64908;BME280;64365;-1.756;110.040;2023-03-14T06:53:43;98842.72;;;10.41;90.30
64908;BME280;64365;-1.756;110.040;2023-03-14T06:56:10;98847.38;;;10.37;89.84
64908;BME280;64365;-1.756;110.040;2023-03-14T06:58:36;98856.34;;;10.43;89.00
64908;BME280;64365;-1.756;110.040;2023-03-14T07:01:03;98870.13;;;10.38;88.97
64908;BME280;64365;-1.756;110.040;2023-03-14T07:03:31;98884.88;;;10.39;88.71
64908;BME280;64365;-1.756;110.040;2023-03-14T07:05:57;98885.28;;;10.37;88.02
64908;BME280;64365;-1.756;110.040;2023-03-14T07:08:25;98899.25;;;10.41;88.15
64908;BME280;64365;-1.756;110.040;2023-03-14T07:10:51;98905.66;;;10.44;87.08
64908;BME280;64365;-1.756;110.040;2023-03-14T07:13:18;98912.47;;;10.45;87.54
64908;BME280;64365;-1.756;110.040;2023-03-14T07:15:44;98911.88;;;10.34;86.53
64908;BME280;64365;-1.756;110.040;2023-03-14T07:18:11;98932.66;;;10.39;85.82
64908;BME280;64365;-1.756;110.040;2023-03-14T07:20:39;98937.00;;;10.29;85.75
64908;BME280;64365;-1.756;110.040;2023-03-14T07:23:05;98949.00;;;10.37;86.15
64908;BME280;64365;-1.756;110.040;2023-03-14T07:25:32;98971.75;;;10.38;85.11
64908;BME280;64365;-1.756;110.040;2023-03-14T07:27:58;98984.22;;;10.41;85.85
64908;BME280;64365;-1.756;110.040;2023-03-14T07:30:25;98992.19;;;10.41;85.01
64908;BME280;64365;-1.756;110.040;2023-03-14T07:32:51;99007.03;;;10.39;84.91
64908;BME280;64365;-1.756;110.040;2023-03-14T07:35:18;99009.91;;;10.48;85.12
64908;BME280;64365;-1.756;110.040;2023-03-14T07:37:46;99026.13;;;10.54;85.19
64908;BME280;64365;-1.756;110.040;2023-03-14T07:40:12;99028.78;;;10.54;84.56
64908;BME280;64365;-1.756;110.040;2023-03-14T07:42:40;99042.53;;;10.49;84.11
64908;BME280;64365;-1.756;110.040;2023-03-14T07:45:08;99066.03;;;10.50;84.39
64908;BME280;64365;-1.756;110.040;2023-03-14T07:47:34;99083.53;;;10.48;83.92
64908;BME280;64365;-1.756;110.040;2023-03-14T07:50:01;99091.69;;;10.33;82.97
64908;BME280;64365;-1.756;110.040;2023-03-14T07:52:28;99097.53;;;10.24;82.61
64908;BME280;64365;-1.756;110.040;2023-03-14T07:54:55;99106.75;;;10.16;81.64
64908;BME280;64365;-1.756;110.040;2023-03-14T07:57:22;99123.16;;;10.07;82.58
64908;BME280;64365;-1.756;110.040;2023-03-14T07:59:50;99134.91;;;10.06;82.73
64908;BME280;64365;-1.756;110.040;2023-03-14T08:02:16;99150.78;;;10.14;82.12
64908;BME280;64365;-1.756;110.040;2023-03-14T08:04:45;99163.72;;;10.08;81.03
64908;BME280;64365;-1.756;110.040;2023-03-14T08:07:12;99174.47;;;9.97;80.58
64908;BME280;64365;-1.756;110.040;2023-03-14T08:09:38;99191.25;;;9.90;79.91
64908;BME280;64365;-1.756;110.040;2023-03-14T08:12:06;99196.75;;;9.72;79.35
64908;BME280;64365;-1.756;110.040;2023-03-14T08:14:33;99210.50;;;9.64;79.78
64908;BME280;64365;-1.756;110.040;2023-03-14T08:17:00;99220.44;;;9.56;79.47
64908;BME280;64365;-1.756;110.040;2023-03-14T08:19:26;99225.84;;;9.45;79.32
64908;BME280;64365;-1.756;110.040;2023-03-14T08:21:53;99241.72;;;9.49;79.55
64908;BME280;64365;-1.756;110.040;2023-03-14T08:24:19;99259.50;;;9.52;80.25
64908;BME280;64365;-1.756;110.040;2023-03-14T08:26:46;99260.94;;;9.60;80.23
64908;BME280;64365;-1.756;110.040;2023-03-14T08:29:14;99266.72;;;9.51;80.06
64908;BME280;64365;-1.756;110.040;2023-03-14T08:31:40;99283.69;;;9.57;79.59
64908;BME280;64365;-1.756;110.040;2023-03-14T08:34:07;99297.66;;;9.61;79.89
64908;BME280;64365;-1.756;110.040;2023-03-14T08:36:33;99304.09;;;9.64;79.92
64908;BME280;64365;-1.756;110.040;2023-03-14T08:39:00;99313.53;;;9.69;79.73
64908;BME280;64365;-1.756;110.040;2023-03-14T08:41:28;99327.94;;;9.68;79.35
64908;BME280;64365;-1.756;110.040;2023-03-14T08:43:55;99337.81;;;9.64;79.24
64908;BME280;64365;-1.756;110.040;2023-03-14T08:46:23;99346.91;;;9.63;79.22
64908;BME280;64365;-1.756;110.040;2023-03-14T08:48:49;99353.69;;;9.67;78.70
64908;BME280;64365;-1.756;110.040;2023-03-14T08:51:16;99365.78;;;9.72;78.88
64908;BME280;64365;-1.756;110.040;2023-03-14T08:53:43;99378.91;;;9.86;78.41
64908;BME280;64365;-1.756;110.040;2023-03-14T08:56:09;99392.88;;;9.98;77.35
64908;BME280;64365;-1.756;110.040;2023-03-14T08:58:36;99391.78;;;9.91;76.87
64908;BME280;64365;-1.756;110.040;2023-03-14T09:01:03;99406.56;;;9.92;76.94
64908;BME280;64365;-1.756;110.040;2023-03-14T09:03:31;99412.66;;;9.86;76.91
64908;BME280;64365;-1.756;110.040;2023-03-14T09:06:02;99419.16;;;9.81;75.68
64908;BME280;64365;-1.756;110.040;2023-03-14T09:08:29;99428.41;;;9.62;75.69
64908;BME280;64365;-1.756;110.040;2023-03-14T09:10:56;99442.06;;;9.57;75.10
64908;BME280;64365;-1.756;110.040;2023-03-14T09:13:22;99453.09;;;9.55;76.34
64908;BME280;64365;-1.756;110.040;2023-03-14T09:15:50;99462.56;;;9.53;75.83
64908;BME280;64365;-1.756;110.040;2023-03-14T09:18:17;99471.31;;;9.46;76.00
64908;BME280;64365;-1.756;110.040;2023-03-14T09:20:45;99481.94;;;9.46;77.03
64908;BME280;64365;-1.756;110.040;2023-03-14T09:23:11;99483.78;;;9.49;76.27
64908;BME280;64365;-1.756;110.040;2023-03-14T09:25:38;99495.53;;;9.48;76.97
64908;BME280;64365;-1.756;110.040;2023-03-14T09:28:05;99501.22;;;9.47;76.39
64908;BME280;64365;-1.756;110.040;2023-03-14T09:30:31;99516.75;;;9.48;75.71
64908;BME280;64365;-1.756;110.040;2023-03-14T09:32:58;99520.56;;;9.43;76.89
64908;BME280;64365;-1.756;110.040;2023-03-14T09:35:25;99537.53;;;9.60;77.75
64908;BME280;64365;-1.756;110.040;2023-03-14T09:37:53;99540.16;;;9.68;76.52
64908;BME280;64365;-1.756;110.040;2023-03-14T09:40:21;99545.78;;;9.77;76.14
64908;BME280;64365;-1.756;110.040;2023-03-14T09:42:50;99555.97;;;9.82;76.21
64908;BME280;64365;-1.756;110.040;2023-03-14T09:45:23;99550.72;;;9.78;76.34
64908;BME280;64365;-1.756;110.040;2023-03-14T09:47:51;99566.69;;;9.64;75.56
64908;BME280;64365;-1.756;110.040;2023-03-14T09:50:19;99585.59;;;9.73;75.43
64908;BME280;64365;-1.756;110.040;2023-03-14T09:52:48;99595.47;;;9.69;75.21
64908;BME280;64365;-1.756;110.040;2023-03-14T09:55:19;99616.34;;;9.64;74.30
64908;BME280;64365;-1.756;110.040;2023-03-14T09:57:48;99628.13;;;9.55;74.38
64908;BME280;64365;-1.756;110.040;2023-03-14T10:00:18;99638.34;;;9.53;75.04
64908;BME280;64365;-1.756;110.040;2023-03-14T10:02:50;99650.16;;;9.38;73.90
64908;BME280;64365;-1.756;110.040;2023-03-14T10:05:20;99636.91;;;9.31;75.13
64908;BME280;64365;-1.756;110.040;2023-03-14T10:07:47;99652.06;;;9.34;76.42
64908;BME280;64365;-1.756;110.040;2023-03-14T10:10:19;99663.78;;;9.43;77.15
64908;BME280;64365;-1.756;110.040;2023-03-14T10:12:46;99670.56;;;9.48;76.84
64908;BME280;64365;-1.756;110.040;2023-03-14T10:15:15;99670.53;;;9.59;76.83
64908;BME280;64365;-1.756;110.040;2023-03-14T10:17:49;99683.06;;;9.62;76.11
64908;BME280;64365;-1.756;110.040;2023-03-14T10:20:28;99690.22;;;9.80;75.87
64908;BME280;64365;-1.756;110.040;2023-03-14T10:22:58;99696.91;;;10.06;76.02
64908;BME280;64365;-1.756;110.040;2023-03-14T10:25:28;99720.31;;;10.29;74.80
64908;BME280;64365;-1.756;110.040;2023-03-14T10:27:54;99724.50;;;10.26;72.19
64908;BME280;64365;-1.756;110.040;2023-03-14T10:30:30;99728.34;;;10.18;71.09
64908;BME280;64365;-1.756;110.040;2023-03-14T10:32:57;99749.63;;;10.07;70.16
64908;BME280;64365;-1.756;110.040;2023-03-14T10:35:24;99751.19;;;9.98;70.24
64908;BME280;64365;-1.756;110.040;2023-03-14T10:37:53;99770.84;;;10.04;71.67
64908;BME280;64365;-1.756;110.040;2023-03-14T10:40:27;99778.81;;;10.07;69.95
64908;BME280;64365;-1.756;110.040;2023-03-14T10:42:55;99783.06;;;9.90;69.10
64908;BME280;64365;-1.756;110.040;2023-03-14T10:45:29;99795.19;;;9.81;66.93
64908;BME280;64365;-1.756;110.040;2023-03-14T10:47:58;99805.44;;;9.64;67.51
64908;BME280;64365;-1.756;110.040;2023-03-14T10:50:27;99813.03;;;9.66;68.11
64908;BME280;64365;-1.756;110.040;2023-03-14T10:52:55;99810.75;;;9.68;67.20
64908;BME280;64365;-1.756;110.040;2023-03-14T10:55:23;99835.38;;;9.79;66.25
64908;BME280;64365;-1.756;110.040;2023-03-14T10:57:52;99835.75;;;9.85;66.42
64908;BME280;64365;-1.756;110.040;2023-03-14T11:00:20;99854.28;;;10.06;66.05
64908;BME280;64365;-1.756;110.040;2023-03-14T11:03:08;99855.38;;;10.38;65.41
64908;BME280;64365;-1.756;110.040;2023-03-14T11:05:40;99876.16;;;10.65;63.55
64908;BME280;64365;-1.756;110.040;2023-03-14T11:08:16;99879.44;;;10.90;62.17
64908;BME280;64365;-1.756;110.040;2023-03-14T11:10:48;99889.91;;;11.23;62.04
64908;BME280;64365;-1.756;110.040;2023-03-14T11:13:22;99897.09;;;11.29;61.94
64908;BME280;64365;-1.756;110.040;2023-03-14T11:15:58;99914.56;;;11.27;60.65
64908;BME280;64365;-1.756;110.040;2023-03-14T11:18:46;99922.56;;;11.27;59.87
64908;BME280;64365;-1.756;110.040;2023-03-14T11:21:20;99932.81;;;11.28;58.09
64908;BME280;64365;-1.756;110.040;2023-03-14T11:24:00;99942.25;;;11.40;57.99
64908;BME280;64365;-1.756;110.040;2023-03-14T11:26:34;99941.84;;;11.45;58.71
64908;BME280;64365;-1.756;110.040;2023-03-14T11:29:15;99952.38;;;11.60;58.05
64908;BME280;64365;-1.756;110.040;2023-03-14T11:31:46;99965.25;;;11.69;58.57
64908;BME280;64365;-1.756;110.040;2023-03-14T11:34:16;99970.16;;;11.74;58.23
64908;BME280;64365;-1.756;110.040;2023-03-14T11:36:46;99988.41;;;11.75;55.34
64908;BME280;64365;-1.756;110.040;2023-03-14T11:39:19;99983.47;;;11.74;56.52
64908;BME280;64365;-1.756;110.040;2023-03-14T11:41:47;99992.91;;;11.82;56.55
64908;BME280;64365;-1.756;110.040;2023-03-14T11:44:19;100004.44;;;11.65;51.71
64908;BME280;64365;-1.756;110.040;2023-03-14T11:46:50;100008.25;;;11.63;54.75
64908;BME280;64365;-1.756;110.040;2023-03-14T11:49:26;100015.75;;;11.83;53.51
64908;BME280;64365;-1.756;110.040;2023-03-14T11:51:59;100009.22;;;11.91;51.51
64908;BME280;64365;-1.756;110.040;2023-03-14T11:54:33;100019.13;;;11.91;51.86
64908;BME280;64365;-1.756;110.040;2023-03-14T11:57:03;100032.38;;;12.02;51.36
64908;BME280;64365;-1.756;110.040;2023-03-14T11:59:41;100042.25;;;12.01;50.80
64908;BME280;64365;-1.756;110.040;2023-03-14T12:02:17;100049.03;;;12.13;51.42
64908;BME280;64365;-1.756;110.040;2023-03-14T12:04:55;100049.66;;;12.32;49.86
64908;BME280;64365;-1.756;110.040;2023-03-14T12:07:29;100049.97;;;12.41;49.09
64908;BME280;64365;-1.756;110.040;2023-03-14T12:09:56;100051.09;;;12.43;48.66
64908;BME280;64365;-1.756;110.040;2023-03-14T12:12:26;100074.63;;;12.52;49.82
64908;BME280;64365;-1.756;110.040;2023-03-14T12:14:57;100076.13;;;12.53;47.56
64908;BME280;64365;-1.756;110.040;2023-03-14T12:17:26;100081.09;;;12.51;48.77
64908;BME280;64365;-1.756;110.040;2023-03-14T12:20:05;100079.28;;;12.41;46.98
64908;BME280;64365;-1.756;110.040;2023-03-14T12:22:34;100089.16;;;12.44;46.40
64908;BME280;64365;-1.756;110.040;2023-03-14T12:25:13;100092.94;;;12.46;46.53
64908;BME280;64365;-1.756;110.040;2023-03-14T12:27:44;100104.72;;;12.49;47.16
64908;BME280;64365;-1.756;110.040;2023-03-14T12:30:25;100108.94;;;12.46;46.28
64908;BME280;64365;-1.756;110.040;2023-03-14T12:33:20;100116.19;;;12.42;45.94
64908;BME280;64365;-1.756;110.040;2023-03-14T12:35:48;100120.06;;;12.30;46.97
64908;BME280;64365;-1.756;110.040;2023-03-14T12:38:21;100112.91;;;12.20;46.65
64908;BME280;64365;-1.756;110.040;2023-03-14T12:40:57;100117.88;;;12.18;47.92
64908;BME280;64365;-1.756;110.040;2023-03-14T12:43:28;100131.94;;;12.19;46.97
64908;BME280;64365;-1.756;110.040;2023-03-14T12:46:15;100130.84;;;12.12;44.22
64908;BME280;64365;-1.756;110.040;2023-03-14T12:48:46;100146.00;;;12.23;45.10